sensor_id;sensor_type;location;lat;lon;timestamp;temperature;humidity
67249;SHT31;63247;54.300;18.592;2022-12-05T00:01:55;0.24;99.99
67249;SHT31;63247;54.300;18.592;2022-12-05T00:04:21;0.20;99.99
67249;SHT31;63247;54.300;18.592;2022-12-05T00:06:47;0.19;99.99
67249;SHT31;63247;54.300;18.592;2022-12-05T00:09:12;0.22;99.99
67249;SHT31;63247;54.300;18.592;2022-12-05T00:11:40;0.13;99.99
67249;SHT31;63247;54.300;18.592;2022-12-05T00:14:07;0.12;99.99
67249;SHT31;63247;54.300;18.592;2022-12-05T00:16:35;0.12;99.99
67249;SHT31;63247;54.300;18.592;2022-12-05T00:19:02;0.06;99.99
67249;SHT31;63247;54.300;18.592;2022-12-05T00:21:30;0.06;99.99
67249;SHT31;63247;54.300;18.592;2022-12-05T00:23:57;0.05;99.99
67249;SHT31;63247;54.300;18.592;2022-12-05T00:26:23;0.05;99.99
67249;SHT31;63247;54.300;18.592;2022-12-05T00:28:48;0.05;99.99
67249;SHT31;63247;54.300;18.592;2022-12-05T00:31:16;0.07;99.99
67249;SHT31;63247;54.300;18.592;2022-12-05T00:33:43;0.06;99.99
67249;SHT31;63247;54.300;18.592;2022-12-05T00:36:14;0.07;99.99
67249;SHT31;63247;54.300;18.592;2022-12-05T00:38:40;0.09;99.99
67249;SHT31;63247;54.300;18.592;2022-12-05T00:41:12;0.07;99.99
67249;SHT31;63247;54.300;18.592;2022-12-05T00:43:38;0.02;99.99
67249;SHT31;63247;54.300;18.592;2022-12-05T00:46:05;0.02;99.99
67249;SHT31;63247;54.300;18.592;2022-12-05T00:48:32;0.12;99.99
67249;SHT31;63247;54.300;18.592;2022-12-05T00:51:17;0.09;99.99
67249;SHT31;63247;54.300;18.592;2022-12-05T00:53:44;0.09;99.99
67249;SHT31;63247;54.300;18.592;2022-12-05T00:56:14;0.03;99.99
67249;SHT31;63247;54.300;18.592;2022-12-05T00:58:40;0.13;99.99
67249;SHT31;63247;54.300;18.592;2022-12-05T01:03:31;0.16;99.99
67249;SHT31;63247;54.300;18.592;2022-12-05T01:05:58;0.10;99.99
67249;SHT31;63247;54.300;18.592;2022-12-05T01:08:23;0.05;99.99
67249;SHT31;63247;54.300;18.592;2022-12-05T01:10:53;0.09;99.99
67249;SHT31;63247;54.300;18.592;2022-12-05T01:13:19;0.07;99.99
67249;SHT31;63247;54.300;18.592;2022-12-05T01:15:45;0.07;99.99
67249;SHT31;63247;54.300;18.592;2022-12-05T01:18:10;0.09;99.99
67249;SHT31;63247;54.300;18.592;2022-12-05T01:20:38;0.07;99.99
67249;SHT31;63247;54.300;18.592;2022-12-05T01:23:04;0.09;99.99
67249;SHT31;63247;54.300;18.592;2022-12-05T01:25:29;0.03;99.99
67249;SHT31;63247;54.300;18.592;2022-12-05T01:27:55;0.02;99.99
67249;SHT31;63247;54.300;18.592;2022-12-05T01:30:20;0.03;99.99
67249;SHT31;63247;54.300;18.592;2022-12-05T01:32:46;0.09;99.99
67249;SHT31;63247;54.300;18.592;2022-12-05T01:35:11;0.12;99.99
67249;SHT31;63247;54.300;18.592;2022-12-05T01:37:36;0.06;99.99
67249;SHT31;63247;54.300;18.592;2022-12-05T01:40:02;0.06;99.99
67249;SHT31;63247;54.300;18.592;2022-12-05T01:42:28;0.09;99.99
67249;SHT31;63247;54.300;18.592;2022-12-05T01:44:58;0.05;99.99
67249;SHT31;63247;54.300;18.592;2022-12-05T01:47:24;0.03;99.99
67249;SHT31;63247;54.300;18.592;2022-12-05T01:49:50;0.02;99.99
67249;SHT31;63247;54.300;18.592;2022-12-05T01:52:22;-0.01;99.99
67249;SHT31;63247;54.300;18.592;2022-12-05T01:54:50;0.02;99.99
67249;SHT31;63247;54.300;18.592;2022-12-05T01:57:18;-0.02;99.99
67249;SHT31;63247;54.300;18.592;2022-12-05T01:59:47;-0.07;99.99
67249;SHT31;63247;54.300;18.592;2022-12-05T02:02:14;-0.07;99.99
67249;SHT31;63247;54.300;18.592;2022-12-05T02:07:32;-0.08;99.99
67249;SHT31;63247;54.300;18.592;2022-12-05T02:09:58;-0.04;99.99
67249;SHT31;63247;54.300;18.592;2022-12-05T02:12:23;-0.05;99.99
67249;SHT31;63247;54.300;18.592;2022-12-05T02:31:26;-0.07;99.99
67249;SHT31;63247;54.300;18.592;2022-12-05T02:34:04;-0.05;99.99
67249;SHT31;63247;54.300;18.592;2022-12-05T02:37:16;-0.04;99.99
67249;SHT31;63247;54.300;18.592;2022-12-05T02:39:53;-0.08;99.99
67249;SHT31;63247;54.300;18.592;2022-12-05T02:42:35;-0.07;99.99
67249;SHT31;63247;54.300;18.592;2022-12-05T02:45:06;-0.12;99.99
67249;SHT31;63247;54.300;18.592;2022-12-05T02:47:37;-0.08;99.99
67249;SHT31;63247;54.300;18.592;2022-12-05T02:50:06;-0.08;99.99
67249;SHT31;63247;54.300;18.592;2022-12-05T02:52:33;-0.05;99.99
67249;SHT31;63247;54.300;18.592;2022-12-05T02:54:59;-0.08;99.99
67249;SHT31;63247;54.300;18.592;2022-12-05T02:57:25;-0.15;99.99
67249;SHT31;63247;54.300;18.592;2022-12-05T02:59:50;-0.09;99.99
67249;SHT31;63247;54.300;18.592;2022-12-05T03:02:42;-0.15;99.99
67249;SHT31;63247;54.300;18.592;2022-12-05T03:05:35;-0.08;99.99
67249;SHT31;63247;54.300;18.592;2022-12-05T03:08:03;-0.11;99.99
67249;SHT31;63247;54.300;18.592;2022-12-05T03:10:33;-0.12;99.99
67249;SHT31;63247;54.300;18.592;2022-12-05T03:13:04;-0.15;99.99
67249;SHT31;63247;54.300;18.592;2022-12-05T03:15:37;-0.15;99.99
67249;SHT31;63247;54.300;18.592;2022-12-05T03:18:46;-0.09;99.99
67249;SHT31;63247;54.300;18.592;2022-12-05T03:21:35;-0.12;99.99
67249;SHT31;63247;54.300;18.592;2022-12-05T03:24:06;-0.11;99.99
67249;SHT31;63247;54.300;18.592;2022-12-05T03:32:18;-0.09;99.99
67249;SHT31;63247;54.300;18.592;2022-12-05T03:34:50;-0.09;99.99
67249;SHT31;63247;54.300;18.592;2022-12-05T03:40:04;-0.07;99.99
67249;SHT31;63247;54.300;18.592;2022-12-05T03:42:33;-0.12;99.99
67249;SHT31;63247;54.300;18.592;2022-12-05T03:45:06;-0.08;99.99
67249;SHT31;63247;54.300;18.592;2022-12-05T03:47:44;-0.14;99.99
67249;SHT31;63247;54.300;18.592;2022-12-05T03:50:27;-0.05;99.99
67249;SHT31;63247;54.300;18.592;2022-12-05T03:53:23;-0.08;99.99
67249;SHT31;63247;54.300;18.592;2022-12-05T03:56:03;-0.16;99.99
67249;SHT31;63247;54.300;18.592;2022-12-05T03:58:33;-0.16;99.99
67249;SHT31;63247;54.300;18.592;2022-12-05T04:01:02;-0.16;99.99
67249;SHT31;63247;54.300;18.592;2022-12-05T04:03:47;-0.16;99.99
67249;SHT31;63247;54.300;18.592;2022-12-05T04:08:53;-0.22;99.99
67249;SHT31;63247;54.300;18.592;2022-12-05T04:11:24;-0.16;99.99
67249;SHT31;63247;54.300;18.592;2022-12-05T04:13:53;-0.15;99.99
67249;SHT31;63247;54.300;18.592;2022-12-05T04:19:25;-0.16;99.99
67249;SHT31;63247;54.300;18.592;2022-12-05T04:21:54;-0.22;99.99
67249;SHT31;63247;54.300;18.592;2022-12-05T04:24:26;-0.19;99.99
67249;SHT31;63247;54.300;18.592;2022-12-05T04:27:28;-0.16;99.99
67249;SHT31;63247;54.300;18.592;2022-12-05T04:30:06;-0.12;99.99
67249;SHT31;63247;54.300;18.592;2022-12-05T04:35:30;-0.18;99.99
67249;SHT31;63247;54.300;18.592;2022-12-05T04:38:07;-0.18;99.99
67249;SHT31;63247;54.300;18.592;2022-12-05T04:40:58;-0.14;99.99
67249;SHT31;63247;54.300;18.592;2022-12-05T04:43:26;-0.11;99.99
67249;SHT31;63247;54.300;18.592;2022-12-05T04:45:54;-0.16;99.99
67249;SHT31;63247;54.300;18.592;2022-12-05T04:48:22;-0.21;99.99
67249;SHT31;63247;54.300;18.592;2022-12-05T04:50:50;-0.14;99.99
67249;SHT31;63247;54.300;18.592;2022-12-05T04:53:18;-0.23;99.99
67249;SHT31;63247;54.300;18.592;2022-12-05T04:55:48;-0.23;99.99
67249;SHT31;63247;54.300;18.592;2022-12-05T04:58:18;-0.11;99.99
67249;SHT31;63247;54.300;18.592;2022-12-05T05:01:02;-0.16;99.99
67249;SHT31;63247;54.300;18.592;2022-12-05T05:03:35;-0.09;99.99
67249;SHT31;63247;54.300;18.592;2022-12-05T05:06:01;-0.19;99.99
67249;SHT31;63247;54.300;18.592;2022-12-05T05:08:28;-0.16;99.99
67249;SHT31;63247;54.300;18.592;2022-12-05T05:11:11;-0.16;99.99
67249;SHT31;63247;54.300;18.592;2022-12-05T05:13:37;-0.19;99.99
67249;SHT31;63247;54.300;18.592;2022-12-05T05:16:03;-0.15;99.99
67249;SHT31;63247;54.300;18.592;2022-12-05T05:18:28;-0.16;99.99
67249;SHT31;63247;54.300;18.592;2022-12-05T05:20:54;-0.19;99.99
67249;SHT31;63247;54.300;18.592;2022-12-05T05:23:19;-0.11;99.99
67249;SHT31;63247;54.300;18.592;2022-12-05T05:25:45;-0.12;99.99
67249;SHT31;63247;54.300;18.592;2022-12-05T05:28:15;-0.12;99.99
67249;SHT31;63247;54.300;18.592;2022-12-05T05:30:40;-0.14;99.99
67249;SHT31;63247;54.300;18.592;2022-12-05T05:33:06;-0.16;99.99
67249;SHT31;63247;54.300;18.592;2022-12-05T05:35:35;-0.16;99.99
67249;SHT31;63247;54.300;18.592;2022-12-05T05:38:00;-0.11;99.99
67249;SHT31;63247;54.300;18.592;2022-12-05T05:40:26;-0.09;99.99
67249;SHT31;63247;54.300;18.592;2022-12-05T05:42:51;-0.08;99.99
67249;SHT31;63247;54.300;18.592;2022-12-05T05:45:17;-0.12;99.99
67249;SHT31;63247;54.300;18.592;2022-12-05T05:47:43;-0.18;99.99
67249;SHT31;63247;54.300;18.592;2022-12-05T05:50:09;-0.14;99.99
67249;SHT31;63247;54.300;18.592;2022-12-05T05:52:36;-0.22;99.99
67249;SHT31;63247;54.300;18.592;2022-12-05T05:55:04;-0.19;99.99
67249;SHT31;63247;54.300;18.592;2022-12-05T05:57:30;-0.18;99.99
67249;SHT31;63247;54.300;18.592;2022-12-05T05:59:56;-0.18;99.99
67249;SHT31;63247;54.300;18.592;2022-12-05T06:02:22;-0.18;99.99
67249;SHT31;63247;54.300;18.592;2022-12-05T06:04:48;-0.14;99.99
67249;SHT31;63247;54.300;18.592;2022-12-05T06:07:13;-0.18;99.99
67249;SHT31;63247;54.300;18.592;2022-12-05T06:09:38;-0.18;99.99
67249;SHT31;63247;54.300;18.592;2022-12-05T06:12:04;-0.15;99.99
67249;SHT31;63247;54.300;18.592;2022-12-05T06:14:30;-0.18;99.99
67249;SHT31;63247;54.300;18.592;2022-12-05T06:16:55;-0.18;99.99
67249;SHT31;63247;54.300;18.592;2022-12-05T06:19:21;-0.15;99.99
67249;SHT31;63247;54.300;18.592;2022-12-05T06:21:48;-0.18;99.99
67249;SHT31;63247;54.300;18.592;2022-12-05T06:24:15;-0.12;99.99
67249;SHT31;63247;54.300;18.592;2022-12-05T06:26:40;-0.15;99.99
67249;SHT31;63247;54.300;18.592;2022-12-05T06:29:06;-0.14;99.99
67249;SHT31;63247;54.300;18.592;2022-12-05T06:31:31;-0.19;99.99
67249;SHT31;63247;54.300;18.592;2022-12-05T06:34:02;-0.09;99.99
67249;SHT31;63247;54.300;18.592;2022-12-05T06:36:29;-0.11;99.99
67249;SHT31;63247;54.300;18.592;2022-12-05T06:38:56;-0.08;99.99
67249;SHT31;63247;54.300;18.592;2022-12-05T06:41:21;-0.08;99.99
67249;SHT31;63247;54.300;18.592;2022-12-05T06:43:51;-0.07;99.99
67249;SHT31;63247;54.300;18.592;2022-12-05T06:46:17;-0.08;99.99
67249;SHT31;63247;54.300;18.592;2022-12-05T06:48:43;-0.18;99.99
67249;SHT31;63247;54.300;18.592;2022-12-05T06:51:10;-0.21;99.99
67249;SHT31;63247;54.300;18.592;2022-12-05T06:53:35;-0.18;99.99
67249;SHT31;63247;54.300;18.592;2022-12-05T06:56:03;-0.14;99.99
67249;SHT31;63247;54.300;18.592;2022-12-05T06:58:30;-0.16;99.99
67249;SHT31;63247;54.300;18.592;2022-12-05T07:00:55;-0.15;99.99
67249;SHT31;63247;54.300;18.592;2022-12-05T07:03:40;-0.15;99.99
67249;SHT31;63247;54.300;18.592;2022-12-05T07:06:08;-0.05;99.99
67249;SHT31;63247;54.300;18.592;2022-12-05T07:08:34;-0.15;99.99
67249;SHT31;63247;54.300;18.592;2022-12-05T07:11:00;-0.07;99.99
67249;SHT31;63247;54.300;18.592;2022-12-05T07:13:26;-0.05;99.99
67249;SHT31;63247;54.300;18.592;2022-12-05T07:15:51;-0.08;99.99
67249;SHT31;63247;54.300;18.592;2022-12-05T07:18:17;-0.12;99.99
67249;SHT31;63247;54.300;18.592;2022-12-05T07:20:43;-0.12;99.99
67249;SHT31;63247;54.300;18.592;2022-12-05T07:23:09;-0.08;99.99
67249;SHT31;63247;54.300;18.592;2022-12-05T07:25:52;-0.09;99.99
67249;SHT31;63247;54.300;18.592;2022-12-05T07:28:20;-0.09;99.99
67249;SHT31;63247;54.300;18.592;2022-12-05T07:30:45;-0.07;99.99
67249;SHT31;63247;54.300;18.592;2022-12-05T07:33:11;-0.12;99.99
67249;SHT31;63247;54.300;18.592;2022-12-05T07:35:36;-0.14;99.99
67249;SHT31;63247;54.300;18.592;2022-12-05T07:38:02;-0.12;99.99
67249;SHT31;63247;54.300;18.592;2022-12-05T07:40:27;-0.11;99.99
67249;SHT31;63247;54.300;18.592;2022-12-05T07:42:52;-0.16;99.99
67249;SHT31;63247;54.300;18.592;2022-12-05T07:45:19;-0.16;99.99
67249;SHT31;63247;54.300;18.592;2022-12-05T07:47:45;-0.15;99.99
67249;SHT31;63247;54.300;18.592;2022-12-05T07:50:10;-0.14;99.99
67249;SHT31;63247;54.300;18.592;2022-12-05T07:52:36;-0.16;99.99
67249;SHT31;63247;54.300;18.592;2022-12-05T07:55:02;-0.14;99.99
67249;SHT31;63247;54.300;18.592;2022-12-05T07:57:29;-0.16;99.99
67249;SHT31;63247;54.300;18.592;2022-12-05T07:59:54;-0.18;99.99
67249;SHT31;63247;54.300;18.592;2022-12-05T08:02:21;-0.22;99.99
67249;SHT31;63247;54.300;18.592;2022-12-05T08:04:47;-0.23;99.99
67249;SHT31;63247;54.300;18.592;2022-12-05T08:07:12;-0.18;99.99
67249;SHT31;63247;54.300;18.592;2022-12-05T08:09:37;-0.16;99.99
67249;SHT31;63247;54.300;18.592;2022-12-05T08:12:03;-0.15;99.99
67249;SHT31;63247;54.300;18.592;2022-12-05T08:14:28;-0.21;99.99
67249;SHT31;63247;54.300;18.592;2022-12-05T08:16:54;-0.14;99.99
67249;SHT31;63247;54.300;18.592;2022-12-05T08:19:19;-0.15;99.99
67249;SHT31;63247;54.300;18.592;2022-12-05T08:21:45;-0.21;99.99
67249;SHT31;63247;54.300;18.592;2022-12-05T08:24:11;-0.16;99.99
67249;SHT31;63247;54.300;18.592;2022-12-05T08:26:37;-0.19;99.99
67249;SHT31;63247;54.300;18.592;2022-12-05T08:29:11;-0.21;99.99
67249;SHT31;63247;54.300;18.592;2022-12-05T08:31:43;-0.22;99.99
67249;SHT31;63247;54.300;18.592;2022-12-05T08:34:11;-0.14;99.99
67249;SHT31;63247;54.300;18.592;2022-12-05T08:36:37;-0.11;99.99
67249;SHT31;63247;54.300;18.592;2022-12-05T08:39:04;-0.09;99.99
67249;SHT31;63247;54.300;18.592;2022-12-05T08:41:31;-0.12;99.99
67249;SHT31;63247;54.300;18.592;2022-12-05T08:44:03;-0.19;99.99
67249;SHT31;63247;54.300;18.592;2022-12-05T08:46:34;-0.22;99.99
67249;SHT31;63247;54.300;18.592;2022-12-05T08:49:01;-0.16;99.99
67249;SHT31;63247;54.300;18.592;2022-12-05T08:51:27;-0.18;99.99
67249;SHT31;63247;54.300;18.592;2022-12-05T08:53:52;-0.22;99.99
67249;SHT31;63247;54.300;18.592;2022-12-05T08:56:19;-0.21;99.99
67249;SHT31;63247;54.300;18.592;2022-12-05T08:58:44;-0.19;99.99
67249;SHT31;63247;54.300;18.592;2022-12-05T09:01:15;-0.22;99.99
67249;SHT31;63247;54.300;18.592;2022-12-05T09:03:42;-0.22;99.99
67249;SHT31;63247;54.300;18.592;2022-12-05T09:06:16;-0.28;99.99
67249;SHT31;63247;54.300;18.592;2022-12-05T09:08:42;-0.22;99.99
67249;SHT31;63247;54.300;18.592;2022-12-05T09:11:13;-0.25;99.99
67249;SHT31;63247;54.300;18.592;2022-12-05T09:13:39;-0.22;99.99
67249;SHT31;63247;54.300;18.592;2022-12-05T09:16:13;-0.19;99.99
67249;SHT31;63247;54.300;18.592;2022-12-05T09:18:41;-0.22;99.99
67249;SHT31;63247;54.300;18.592;2022-12-05T09:21:11;-0.26;99.99
67249;SHT31;63247;54.300;18.592;2022-12-05T09:23:38;-0.29;99.99
67249;SHT31;63247;54.300;18.592;2022-12-05T09:26:05;-0.22;99.99
67249;SHT31;63247;54.300;18.592;2022-12-05T09:28:31;-0.23;99.99
67249;SHT31;63247;54.300;18.592;2022-12-05T09:30:59;-0.23;99.99
67249;SHT31;63247;54.300;18.592;2022-12-05T09:33:30;-0.25;99.99
67249;SHT31;63247;54.300;18.592;2022-12-05T09:35:55;-0.22;99.99
67249;SHT31;63247;54.300;18.592;2022-12-05T09:38:21;-0.22;99.99
67249;SHT31;63247;54.300;18.592;2022-12-05T09:40:58;-0.22;99.99
67249;SHT31;63247;54.300;18.592;2022-12-05T09:46:11;-0.26;99.99
67249;SHT31;63247;54.300;18.592;2022-12-05T09:48:40;-0.21;99.99
67249;SHT31;63247;54.300;18.592;2022-12-05T09:51:07;-0.25;99.99
67249;SHT31;63247;54.300;18.592;2022-12-05T09:53:39;-0.26;99.99
67249;SHT31;63247;54.300;18.592;2022-12-05T09:56:17;-0.30;99.99
67249;SHT31;63247;54.300;18.592;2022-12-05T09:58:49;-0.28;99.99
67249;SHT31;63247;54.300;18.592;2022-12-05T10:07:08;-0.21;99.99
67249;SHT31;63247;54.300;18.592;2022-12-05T10:15:26;-0.22;99.99
67249;SHT31;63247;54.300;18.592;2022-12-05T10:18:19;-0.11;99.99
67249;SHT31;63247;54.300;18.592;2022-12-05T10:20:52;-0.14;99.99
67249;SHT31;63247;54.300;18.592;2022-12-05T10:23:25;-0.22;99.99
67249;SHT31;63247;54.300;18.592;2022-12-05T10:25:56;-0.19;99.99
67249;SHT31;63247;54.300;18.592;2022-12-05T10:28:36;-0.26;99.99
67249;SHT31;63247;54.300;18.592;2022-12-05T10:31:08;-0.26;99.99
67249;SHT31;63247;54.300;18.592;2022-12-05T10:33:38;-0.35;99.99
67249;SHT31;63247;54.300;18.592;2022-12-05T10:36:12;-0.32;99.99
67249;SHT31;63247;54.300;18.592;2022-12-05T10:38:38;-0.26;99.99
67249;SHT31;63247;54.300;18.592;2022-12-05T10:41:10;-0.29;99.99
67249;SHT31;63247;54.300;18.592;2022-12-05T10:43:39;-0.26;99.99
67249;SHT31;63247;54.300;18.592;2022-12-05T10:46:05;-0.30;99.99
67249;SHT31;63247;54.300;18.592;2022-12-05T10:48:35;-0.28;99.99
67249;SHT31;63247;54.300;18.592;2022-12-05T10:51:02;-0.39;99.99
67249;SHT31;63247;54.300;18.592;2022-12-05T10:53:45;-0.33;99.99
67249;SHT31;63247;54.300;18.592;2022-12-05T10:56:36;-0.29;99.99
67249;SHT31;63247;54.300;18.592;2022-12-05T10:59:02;-0.30;99.99
67249;SHT31;63247;54.300;18.592;2022-12-05T11:01:27;-0.33;99.99
67249;SHT31;63247;54.300;18.592;2022-12-05T11:03:58;-0.30;99.99
67249;SHT31;63247;54.300;18.592;2022-12-05T11:06:30;-0.29;99.99
67249;SHT31;63247;54.300;18.592;2022-12-05T11:08:58;-0.28;99.99
67249;SHT31;63247;54.300;18.592;2022-12-05T11:11:29;-0.30;99.99
67249;SHT31;63247;54.300;18.592;2022-12-05T11:14:03;-0.30;99.99
67249;SHT31;63247;54.300;18.592;2022-12-05T11:16:32;-0.36;99.99
67249;SHT31;63247;54.300;18.592;2022-12-05T11:19:31;-0.39;99.99
67249;SHT31;63247;54.300;18.592;2022-12-05T11:21:58;-0.35;99.99
67249;SHT31;63247;54.300;18.592;2022-12-05T11:24:32;-0.37;99.99
67249;SHT31;63247;54.300;18.592;2022-12-05T11:27:17;-0.30;99.99
67249;SHT31;63247;54.300;18.592;2022-12-05T11:30:22;-0.30;99.99
67249;SHT31;63247;54.300;18.592;2022-12-05T11:32:46;-0.29;99.99
67249;SHT31;63247;54.300;18.592;2022-12-05T11:37:47;-0.26;99.99
67249;SHT31;63247;54.300;18.592;2022-12-05T11:40:16;-0.26;99.99
67249;SHT31;63247;54.300;18.592;2022-12-05T11:51:03;-0.30;99.99
67249;SHT31;63247;54.300;18.592;2022-12-05T12:02:05;-0.33;99.99
67249;SHT31;63247;54.300;18.592;2022-12-05T12:10:23;-0.30;99.99
67249;SHT31;63247;54.300;18.592;2022-12-05T12:33:47;-0.25;99.99
67249;SHT31;63247;54.300;18.592;2022-12-05T12:36:26;-0.30;99.99
67249;SHT31;63247;54.300;18.592;2022-12-05T12:39:12;-0.26;99.99
67249;SHT31;63247;54.300;18.592;2022-12-05T12:47:42;-0.18;99.99
67249;SHT31;63247;54.300;18.592;2022-12-05T12:55:47;-0.19;99.99
67249;SHT31;63247;54.300;18.592;2022-12-05T13:03:48;-0.28;99.99
67249;SHT31;63247;54.300;18.592;2022-12-05T13:06:22;-0.26;99.99
67249;SHT31;63247;54.300;18.592;2022-12-05T13:08:59;-0.22;99.99
67249;SHT31;63247;54.300;18.592;2022-12-05T13:11:28;-0.21;99.99
67249;SHT31;63247;54.300;18.592;2022-12-05T13:13:59;-0.22;99.99
67249;SHT31;63247;54.300;18.592;2022-12-05T13:16:29;-0.16;99.99
67249;SHT31;63247;54.300;18.592;2022-12-05T13:18:57;-0.26;99.99
67249;SHT31;63247;54.300;18.592;2022-12-05T13:21:23;-0.28;99.99
67249;SHT31;63247;54.300;18.592;2022-12-05T13:23:53;-0.29;99.99
67249;SHT31;63247;54.300;18.592;2022-12-05T13:26:28;-0.28;99.99
67249;SHT31;63247;54.300;18.592;2022-12-05T13:29:02;-0.23;99.99
67249;SHT31;63247;54.300;18.592;2022-12-05T13:31:42;-0.23;99.99
67249;SHT31;63247;54.300;18.592;2022-12-05T13:36:56;-0.21;99.99
67249;SHT31;63247;54.300;18.592;2022-12-05T13:39:41;-0.29;99.99
67249;SHT31;63247;54.300;18.592;2022-12-05T13:42:33;-0.26;99.99
67249;SHT31;63247;54.300;18.592;2022-12-05T13:50:18;-0.32;99.99
67249;SHT31;63247;54.300;18.592;2022-12-05T13:52:47;-0.35;99.99
67249;SHT31;63247;54.300;18.592;2022-12-05T13:55:26;-0.33;99.99
67249;SHT31;63247;54.300;18.592;2022-12-05T13:57:55;-0.33;99.99
67249;SHT31;63247;54.300;18.592;2022-12-05T14:00:30;-0.35;99.99
67249;SHT31;63247;54.300;18.592;2022-12-05T14:03:01;-0.30;99.99
67249;SHT31;63247;54.300;18.592;2022-12-05T14:15:47;-0.30;99.99
67249;SHT31;63247;54.300;18.592;2022-12-05T14:21:07;-0.30;99.99
67249;SHT31;63247;54.300;18.592;2022-12-05T14:32:21;-0.23;99.99
67249;SHT31;63247;54.300;18.592;2022-12-05T14:37:42;-0.23;99.99
67249;SHT31;63247;54.300;18.592;2022-12-05T14:45:39;-0.19;99.99
67249;SHT31;63247;54.300;18.592;2022-12-05T14:48:29;-0.18;99.99
67249;SHT31;63247;54.300;18.592;2022-12-05T14:50:56;-0.28;99.99
67249;SHT31;63247;54.300;18.592;2022-12-05T15:04:16;-0.28;99.99
67249;SHT31;63247;54.300;18.592;2022-12-05T15:07:06;-0.29;99.99
67249;SHT31;63247;54.300;18.592;2022-12-05T15:15:22;-0.25;99.99
67249;SHT31;63247;54.300;18.592;2022-12-05T15:17:52;-0.25;99.99
67249;SHT31;63247;54.300;18.592;2022-12-05T15:20:36;-0.19;99.99
67249;SHT31;63247;54.300;18.592;2022-12-05T15:26:01;-0.18;99.99
67249;SHT31;63247;54.300;18.592;2022-12-05T15:28:26;-0.16;99.99
67249;SHT31;63247;54.300;18.592;2022-12-05T15:30:55;-0.18;99.99
67249;SHT31;63247;54.300;18.592;2022-12-05T15:33:22;-0.22;99.99
67249;SHT31;63247;54.300;18.592;2022-12-05T15:35:49;-0.15;99.99
67249;SHT31;63247;54.300;18.592;2022-12-05T15:38:28;-0.18;99.99
67249;SHT31;63247;54.300;18.592;2022-12-05T15:40:55;-0.23;99.99
67249;SHT31;63247;54.300;18.592;2022-12-05T15:43:30;-0.22;99.99
67249;SHT31;63247;54.300;18.592;2022-12-05T15:46:26;-0.28;99.99
67249;SHT31;63247;54.300;18.592;2022-12-05T15:48:56;-0.16;99.99
67249;SHT31;63247;54.300;18.592;2022-12-05T15:51:32;-0.16;99.99
67249;SHT31;63247;54.300;18.592;2022-12-05T15:54:03;-0.16;99.99
67249;SHT31;63247;54.300;18.592;2022-12-05T15:59:13;-0.16;99.99
67249;SHT31;63247;54.300;18.592;2022-12-05T16:01:45;-0.19;99.99
67249;SHT31;63247;54.300;18.592;2022-12-05T16:09:07;-0.15;99.99
67249;SHT31;63247;54.300;18.592;2022-12-05T16:11:34;-0.16;99.99
67249;SHT31;63247;54.300;18.592;2022-12-05T16:14:03;-0.19;99.99
67249;SHT31;63247;54.300;18.592;2022-12-05T16:16:36;-0.21;99.99
67249;SHT31;63247;54.300;18.592;2022-12-05T16:19:10;-0.18;99.99
67249;SHT31;63247;54.300;18.592;2022-12-05T16:21:44;-0.22;99.99
67249;SHT31;63247;54.300;18.592;2022-12-05T16:26:38;-0.22;99.99
67249;SHT31;63247;54.300;18.592;2022-12-05T16:29:04;-0.21;99.99
67249;SHT31;63247;54.300;18.592;2022-12-05T16:31:31;-0.25;99.99
67249;SHT31;63247;54.300;18.592;2022-12-05T16:36:25;-0.30;99.99
67249;SHT31;63247;54.300;18.592;2022-12-05T16:39:02;-0.26;99.99
67249;SHT31;63247;54.300;18.592;2022-12-05T16:41:36;-0.26;99.99
67249;SHT31;63247;54.300;18.592;2022-12-05T16:44:03;-0.26;99.99
67249;SHT31;63247;54.300;18.592;2022-12-05T16:52:10;-0.25;99.99
67249;SHT31;63247;54.300;18.592;2022-12-05T16:54:38;-0.29;99.99
67249;SHT31;63247;54.300;18.592;2022-12-05T16:57:03;-0.25;99.99
67249;SHT31;63247;54.300;18.592;2022-12-05T16:59:35;-0.30;99.99
67249;SHT31;63247;54.300;18.592;2022-12-05T17:02:02;-0.25;99.99
67249;SHT31;63247;54.300;18.592;2022-12-05T17:04:28;-0.25;99.99
67249;SHT31;63247;54.300;18.592;2022-12-05T17:06:53;-0.29;99.99
67249;SHT31;63247;54.300;18.592;2022-12-05T17:09:19;-0.23;99.99
67249;SHT31;63247;54.300;18.592;2022-12-05T17:11:46;-0.28;99.99
67249;SHT31;63247;54.300;18.592;2022-12-05T17:14:14;-0.26;99.99
67249;SHT31;63247;54.300;18.592;2022-12-05T17:16:41;-0.25;99.99
67249;SHT31;63247;54.300;18.592;2022-12-05T17:19:07;-0.21;99.99
67249;SHT31;63247;54.300;18.592;2022-12-05T17:21:33;-0.18;99.99
67249;SHT31;63247;54.300;18.592;2022-12-05T17:23:59;-0.23;99.99
67249;SHT31;63247;54.300;18.592;2022-12-05T17:26:25;-0.19;99.99
67249;SHT31;63247;54.300;18.592;2022-12-05T17:28:50;-0.19;99.99
67249;SHT31;63247;54.300;18.592;2022-12-05T17:31:19;-0.16;99.99
67249;SHT31;63247;54.300;18.592;2022-12-05T17:33:46;-0.29;99.99
67249;SHT31;63247;54.300;18.592;2022-12-05T17:36:12;-0.23;99.99
67249;SHT31;63247;54.300;18.592;2022-12-05T17:38:38;-0.30;99.99
67249;SHT31;63247;54.300;18.592;2022-12-05T17:41:03;-0.30;99.99
67249;SHT31;63247;54.300;18.592;2022-12-05T17:43:29;-0.30;99.99
67249;SHT31;63247;54.300;18.592;2022-12-05T17:45:54;-0.26;99.99
67249;SHT31;63247;54.300;18.592;2022-12-05T17:48:20;-0.23;99.99
67249;SHT31;63247;54.300;18.592;2022-12-05T17:50:47;-0.23;99.99
67249;SHT31;63247;54.300;18.592;2022-12-05T17:53:17;-0.29;99.99
67249;SHT31;63247;54.300;18.592;2022-12-05T17:55:43;-0.36;99.99
67249;SHT31;63247;54.300;18.592;2022-12-05T17:58:08;-0.30;99.99
67249;SHT31;63247;54.300;18.592;2022-12-05T18:00:35;-0.28;99.99
67249;SHT31;63247;54.300;18.592;2022-12-05T18:03:00;-0.30;99.99
67249;SHT31;63247;54.300;18.592;2022-12-05T18:05:26;-0.26;99.99
67249;SHT31;63247;54.300;18.592;2022-12-05T18:07:51;-0.23;99.99
67249;SHT31;63247;54.300;18.592;2022-12-05T18:10:19;-0.29;99.99
67249;SHT31;63247;54.300;18.592;2022-12-05T18:12:46;-0.28;99.99
67249;SHT31;63247;54.300;18.592;2022-12-05T18:15:12;-0.29;99.99
67249;SHT31;63247;54.300;18.592;2022-12-05T18:17:38;-0.23;99.99
67249;SHT31;63247;54.300;18.592;2022-12-05T18:20:06;-0.28;99.99
67249;SHT31;63247;54.300;18.592;2022-12-05T18:22:32;-0.33;99.99
67249;SHT31;63247;54.300;18.592;2022-12-05T18:24:57;-0.35;99.99
67249;SHT31;63247;54.300;18.592;2022-12-05T18:27:24;-0.23;99.99
67249;SHT31;63247;54.300;18.592;2022-12-05T18:29:51;-0.28;99.99
67249;SHT31;63247;54.300;18.592;2022-12-05T18:32:17;-0.28;99.99
67249;SHT31;63247;54.300;18.592;2022-12-05T18:34:43;-0.30;99.99
67249;SHT31;63247;54.300;18.592;2022-12-05T18:37:09;-0.30;99.99
67249;SHT31;63247;54.300;18.592;2022-12-05T18:39:35;-0.29;99.99
67249;SHT31;63247;54.300;18.592;2022-12-05T18:42:01;-0.32;99.99
67249;SHT31;63247;54.300;18.592;2022-12-05T18:44:26;-0.28;99.99
67249;SHT31;63247;54.300;18.592;2022-12-05T18:46:52;-0.32;99.99